Observations

78.1 °F / 25.6 °C
SE at 3 MPH
87%
74.1°F / 23.4 °C
29.79" (1008 mb)
10 mile(s)
clear
2021.09.21 1640 UTC

Observations

Surface


Raw METARs

2021/09/21 16:40
PKWA 211640Z AUTO 14003KT 10SM -DZ CLR 26/23 A2979 RMK AO2 T02560234

Translated METAR

Kwajalein, Bucholz AAF, Kwajalein KMR ATOL Airport, Marshall Islands (PKWA) 08-43N 167-44E 2M
Sep 21, 2021 - 12:40 PM EDT / 2021.09.21 1640 UTC
Wind: from the SE (140 degrees) at 3 MPH (3 KT):0
Visibility: 10 mile(s):0
Sky conditions: clear
Weather: light drizzle
Temperature: 78.1 F (25.6 C)
Dew Point: 74.1 F (23.4 C)
Relative Humidity: 87%
Pressure (altimeter): 29.79 in. Hg (1008 hPa)
ob: PKWA 211640Z AUTO 14003KT 10SM -DZ CLR 26/23 A2979 RMK AO2 T02560234
cycle: 16



Upper Air


Latest Skew-T

Skew T Diagram

Latest Data File